Time;durP1;ratioP1;P1;durP2;ratioP2;P2;SDS_P1;SDS_P2;PMS_P1;PMS_P2;Temp;Humidity;BMP_temperature;BMP_pressure;BME280_temperature;BME280_humidity;BME280_pressure;Samples;Min_cycle;Max_cycle;Signal;HPM_P1;HPM_P2
2022/11/24 00:01:14;;;;;;;25.17;11.57;;;7.20;99.90;;;;;;5086290;28;20052;-72
2022/11/24 00:03:40;;;;;;;22.83;11.02;;;7.20;99.90;;;;;;5086400;28;20040;-72
2022/11/24 00:06:08;;;;;;;25.92;11.70;;;7.20;99.90;;;;;;5077684;28;20123;-72
2022/11/24 00:08:36;;;;;;;26.38;11.57;;;7.00;99.90;;;;;;5094851;28;20052;-72
2022/11/24 00:11:04;;;;;;;26.98;11.38;;;7.00;99.90;;;;;;5093521;28;20101;-74
2022/11/24 00:13:31;;;;;;;21.70;10.70;;;7.00;99.90;;;;;;5094548;28;20063;-73
2022/11/24 00:16:24;;;;;;;23.10;10.38;;;7.00;99.90;;;;;;5110918;28;20028;-73
2022/11/24 00:18:52;;;;;;;27.20;10.73;;;7.00;99.90;;;;;;5092213;28;20576;-73
2022/11/24 00:21:19;;;;;;;25.20;10.02;;;7.50;99.90;;;;;;5073806;28;20044;-73
2022/11/24 00:23:45;;;;;;;26.88;10.43;;;7.00;99.90;;;;;;5085726;28;20055;-73
2022/11/24 00:26:16;;;;;;;24.67;9.93;;;6.90;99.90;;;;;;5092979;28;20044;-73
2022/11/24 00:28:44;;;;;;;20.97;8.93;;;6.90;99.90;;;;;;5093830;28;20059;-73
2022/11/24 00:31:18;;;;;;;27.55;9.77;;;6.80;99.90;;;;;;5093920;28;20044;-72
2022/11/24 00:33:46;;;;;;;20.58;9.18;;;6.80;99.90;;;;;;5083083;28;20141;-73
2022/11/24 00:36:12;;;;;;;21.85;9.38;;;6.80;99.90;;;;;;5090759;28;20047;-72
2022/11/24 00:38:38;;;;;;;21.67;9.15;;;6.80;99.90;;;;;;5084621;28;20048;-73
2022/11/24 00:41:04;;;;;;;23.98;9.55;;;6.80;99.90;;;;;;5088325;28;20451;-73
2022/11/24 00:43:30;;;;;;;24.38;9.18;;;6.70;99.90;;;;;;5086217;28;20037;-72
2022/11/24 00:45:55;;;;;;;29.05;9.43;;;6.70;99.90;;;;;;5076737;28;20044;-72
2022/11/24 00:48:21;;;;;;;21.38;8.75;;;6.70;99.90;;;;;;5056792;28;20179;-72
2022/11/24 00:50:59;;;;;;;22.40;8.90;;;6.70;99.90;;;;;;5072751;28;20072;-72
2022/11/24 00:53:25;;;;;;;27.52;9.43;;;6.70;99.90;;;;;;5092632;28;20048;-72
2022/11/24 00:55:51;;;;;;;26.73;9.00;;;6.70;99.90;;;;;;5066937;28;20048;-72
2022/11/24 00:58:17;;;;;;;33.75;9.57;;;6.70;99.90;;;;;;5093298;28;20051;-73
2022/11/24 01:00:43;;;;;;;29.45;9.02;;;6.60;99.90;;;;;;5092898;28;20043;-73
2022/11/24 01:03:09;;;;;;;31.23;8.90;;;6.60;99.90;;;;;;5087918;28;20098;-73
2022/11/24 01:05:36;;;;;;;29.40;8.85;;;6.70;99.90;;;;;;5093158;28;20044;-72
2022/11/24 01:08:01;;;;;;;26.77;8.70;;;6.60;99.90;;;;;;5093585;28;20040;-72
2022/11/24 01:10:27;;;;;;;24.42;8.55;;;6.60;99.90;;;;;;5092174;28;20044;-73
2022/11/24 01:12:53;;;;;;;24.60;8.70;;;6.60;99.90;;;;;;5076368;28;20047;-72
2022/11/24 01:15:19;;;;;;;26.33;8.10;;;6.60;99.90;;;;;;5076169;28;20082;-73
2022/11/24 01:17:44;;;;;;;22.92;8.48;;;6.60;99.90;;;;;;5078090;28;20051;-72
2022/11/24 01:20:11;;;;;;;24.60;8.13;;;6.70;99.90;;;;;;5093042;28;20048;-73
2022/11/24 01:22:41;;;;;;;24.92;7.68;;;7.00;99.90;;;;;;5092505;28;20036;-72
2022/11/24 01:25:08;;;;;;;27.10;8.27;;;6.70;99.90;;;;;;5092605;28;20407;-74
2022/11/24 01:27:34;;;;;;;29.92;7.85;;;6.60;99.90;;;;;;5087977;28;20048;-73
2022/11/24 01:30:00;;;;;;;23.85;7.53;;;6.60;99.90;;;;;;5092454;28;20051;-72
2022/11/24 01:32:25;;;;;;;27.90;7.35;;;6.60;99.90;;;;;;5093671;28;20123;-72
2022/11/24 01:34:51;;;;;;;29.10;7.93;;;6.60;99.90;;;;;;5086411;28;20055;-72
2022/11/24 01:37:17;;;;;;;29.48;8.32;;;6.50;99.90;;;;;;5084433;28;20040;-72
2022/11/24 01:39:42;;;;;;;26.90;7.93;;;6.50;99.90;;;;;;5075684;28;20123;-72
2022/11/24 01:42:08;;;;;;;27.13;7.68;;;6.50;99.90;;;;;;5091765;28;20475;-72
2022/11/24 01:44:34;;;;;;;28.98;7.40;;;6.50;99.90;;;;;;5092776;28;20055;-72
2022/11/24 01:47:16;;;;;;;26.17;7.22;;;6.40;99.90;;;;;;5092643;28;20036;-72
2022/11/24 01:49:54;;;;;;;23.77;6.80;;;6.50;99.90;;;;;;5092301;28;20052;-72
2022/11/24 01:52:43;;;;;;;26.45;7.15;;;6.50;99.90;;;;;;5092109;28;20047;-72
2022/11/24 01:55:14;;;;;;;25.90;7.25;;;6.50;99.90;;;;;;5091763;28;20541;-74
2022/11/24 01:58:09;;;;;;;24.58;6.85;;;6.50;99.90;;;;;;5092801;28;20128;-73
2022/11/24 02:00:37;;;;;;;29.35;7.40;;;6.50;99.90;;;;;;5091273;28;20491;-72
2022/11/24 02:03:03;;;;;;;28.42;7.72;;;6.50;99.90;;;;;;5085715;28;20048;-73
2022/11/24 02:05:47;;;;;;;29.73;7.20;;;6.50;99.90;;;;;;5088739;28;20490;-72
2022/11/24 02:08:40;;;;;;;28.38;7.07;;;6.50;99.90;;;;;;5075644;28;20046;-72
2022/11/24 02:11:05;;;;;;;26.27;6.88;;;6.50;99.90;;;;;;5068575;28;20044;-72
2022/11/24 02:13:34;;;;;;;26.27;6.90;;;6.50;99.90;;;;;;5079864;28;20063;-73
2022/11/24 02:16:01;;;;;;;26.33;6.80;;;6.50;99.90;;;;;;5071367;28;20561;-72
2022/11/24 02:18:27;;;;;;;30.65;7.30;;;6.50;99.90;;;;;;5068231;28;20158;-72
2022/11/24 02:20:54;;;;;;;30.60;6.97;;;7.00;99.90;;;;;;5086399;28;20131;-72
2022/11/24 02:23:48;;;;;;;31.25;6.85;;;6.50;99.90;;;;;;5090061;28;20040;-72
2022/11/24 02:26:29;;;;;;;26.73;6.20;;;6.50;99.90;;;;;;5065127;28;20103;-72
2022/11/24 02:28:55;;;;;;;25.85;6.63;;;6.50;99.90;;;;;;5075269;28;20060;-72
2022/11/24 02:31:21;;;;;;;27.20;6.38;;;6.50;99.90;;;;;;5060272;28;20050;-72
2022/11/24 02:33:48;;;;;;;25.15;6.00;;;6.80;99.90;;;;;;5091517;28;20075;-73
2022/11/24 02:36:15;;;;;;;26.05;6.20;;;6.60;99.90;;;;;;5091305;28;20044;-73
2022/11/24 02:38:40;;;;;;;26.80;6.70;;;6.50;99.90;;;;;;5092160;28;20040;-71
2022/11/24 02:41:10;;;;;;;26.55;6.00;;;6.50;99.90;;;;;;5090758;28;20102;-72
2022/11/24 02:43:48;;;;;;;31.92;6.70;;;6.60;99.90;;;;;;5091650;28;20516;-72
2022/11/24 02:46:14;;;;;;;29.98;6.07;;;6.60;99.90;;;;;;5090975;28;20523;-72
2022/11/24 02:48:39;;;;;;;23.48;6.10;;;6.60;99.90;;;;;;5079843;28;20044;-73
2022/11/24 02:51:05;;;;;;;24.67;5.95;;;6.60;99.90;;;;;;5081000;28;20106;-73
2022/11/24 02:53:31;;;;;;;30.23;6.22;;;6.60;99.90;;;;;;5085764;28;20037;-73
2022/11/24 02:55:56;;;;;;;28.20;5.70;;;6.60;99.90;;;;;;5090930;28;20483;-73
2022/11/24 02:58:22;;;;;;;26.67;6.13;;;6.60;99.90;;;;;;5091883;28;20059;-73
2022/11/24 03:00:48;;;;;;;21.98;5.88;;;6.60;99.90;;;;;;5091610;28;20055;-73
2022/11/24 03:03:14;;;;;;;23.98;6.03;;;6.60;99.90;;;;;;5074253;28;20040;-72
2022/11/24 03:05:40;;;;;;;29.20;5.90;;;6.60;99.90;;;;;;5091413;28;20048;-73
2022/11/24 03:08:05;;;;;;;27.50;6.07;;;7.00;99.90;;;;;;5074824;28;20472;-72
2022/11/24 03:10:31;;;;;;;26.75;5.80;;;6.70;99.90;;;;;;5090640;28;20102;-72
2022/11/24 03:12:57;;;;;;;24.23;5.22;;;6.70;99.90;;;;;;5093237;28;20054;-72
2022/11/24 03:15:23;;;;;;;21.35;5.15;;;6.70;99.90;;;;;;5095576;28;20127;-72
2022/11/24 03:17:49;;;;;;;27.88;6.10;;;6.70;99.90;;;;;;5078575;28;20123;-73
2022/11/24 03:20:15;;;;;;;27.90;5.80;;;6.60;99.90;;;;;;5076239;28;20045;-72
2022/11/24 03:22:41;;;;;;;30.67;5.78;;;6.60;99.90;;;;;;5096154;28;20048;-72
2022/11/24 03:25:07;;;;;;;25.02;5.63;;;6.70;99.90;;;;;;5078101;28;20046;-75
2022/11/24 03:27:33;;;;;;;24.17;5.65;;;6.70;99.90;;;;;;5094768;28;20110;-72
2022/11/24 03:29:58;;;;;;;26.85;5.03;;;6.70;99.90;;;;;;5078205;28;20060;-73
2022/11/24 03:32:24;;;;;;;24.75;5.70;;;6.80;99.90;;;;;;5091033;28;20476;-72
2022/11/24 03:34:50;;;;;;;26.92;5.40;;;6.80;99.90;;;;;;5081023;28;20044;-72
2022/11/24 03:37:16;;;;;;;26.60;5.22;;;6.90;99.90;;;;;;5094462;28;20076;-72
2022/11/24 03:39:41;;;;;;;22.50;5.18;;;6.90;99.90;;;;;;5074990;28;20541;-72
2022/11/24 03:42:07;;;;;;;28.58;5.43;;;6.90;99.90;;;;;;5086621;28;20052;-72
2022/11/24 03:44:33;;;;;;;25.45;4.82;;;7.00;99.90;;;;;;5094668;28;20048;-72
2022/11/24 03:46:58;;;;;;;28.42;5.25;;;7.00;99.90;;;;;;5104306;28;20495;-72
2022/11/24 03:49:24;;;;;;;26.80;5.22;;;7.00;99.90;;;;;;5080763;28;20041;-72
2022/11/24 03:51:50;;;;;;;28.85;5.20;;;6.90;99.90;;;;;;5077600;28;20134;-73
2022/11/24 03:54:15;;;;;;;23.63;5.00;;;7.10;99.90;;;;;;5072792;28;20048;-72
2022/11/24 03:56:41;;;;;;;24.42;4.75;;;6.90;99.90;;;;;;5056885;28;20115;-72
2022/11/24 03:59:07;;;;;;;20.90;4.75;;;6.90;99.90;;;;;;5094912;28;20114;-72
2022/11/24 04:01:33;;;;;;;26.23;4.70;;;6.80;99.90;;;;;;5089308;28;20051;-72
2022/11/24 04:03:59;;;;;;;21.42;4.55;;;6.80;99.90;;;;;;5111553;28;20048;-72
2022/11/24 04:06:25;;;;;;;24.20;4.65;;;6.70;99.90;;;;;;5094357;28;20070;-72
2022/11/24 04:08:51;;;;;;;21.13;4.80;;;6.70;99.90;;;;;;5094496;28;20106;-72
2022/11/24 04:14:00;;;;;;;24.70;4.60;;;6.70;99.90;;;;;;5094382;28;20062;-72
2022/11/24 04:16:26;;;;;;;25.42;4.90;;;6.70;99.90;;;;;;5077304;28;20044;-74
2022/11/24 04:18:52;;;;;;;20.88;4.25;;;6.60;99.90;;;;;;5094709;28;20056;-73
2022/11/24 04:21:18;;;;;;;24.75;4.38;;;7.00;99.90;;;;;;5093859;28;20486;-73
2022/11/24 04:23:44;;;;;;;21.27;4.20;;;6.60;99.90;;;;;;5092991;28;20046;-73
2022/11/24 04:26:10;;;;;;;19.65;4.18;;;6.70;99.90;;;;;;5093229;28;20122;-73
2022/11/24 04:28:37;;;;;;;23.23;4.40;;;6.60;99.90;;;;;;5075798;28;20060;-74
2022/11/24 04:31:04;;;;;;;24.23;4.50;;;6.70;99.90;;;;;;5070589;28;20382;-74
2022/11/24 04:33:30;;;;;;;25.55;4.53;;;6.70;99.90;;;;;;5056296;28;20127;-74
2022/11/24 04:35:56;;;;;;;21.15;4.30;;;6.70;99.90;;;;;;5073735;28;20134;-74
2022/11/24 04:38:21;;;;;;;24.98;4.65;;;6.70;99.90;;;;;;5094054;28;20044;-73
2022/11/24 04:40:47;;;;;;;25.40;4.65;;;6.70;99.90;;;;;;5037792;28;20041;-74
2022/11/24 04:43:15;;;;;;;21.65;4.47;;;6.80;99.90;;;;;;5053653;28;20050;-74
2022/11/24 04:45:40;;;;;;;26.30;4.50;;;7.10;99.90;;;;;;5039804;28;20044;-76
2022/11/24 04:48:06;;;;;;;21.65;4.70;;;6.80;99.90;;;;;;5052748;28;20101;-74
2022/11/24 04:50:32;;;;;;;21.77;4.07;;;6.80;99.90;;;;;;5056862;28;20045;-74
2022/11/24 04:52:57;;;;;;;24.85;4.60;;;6.80;99.90;;;;;;5056542;28;20044;-74
2022/11/24 04:55:23;;;;;;;21.80;4.32;;;6.80;99.90;;;;;;5039323;28;20048;-74
2022/11/24 04:57:49;;;;;;;20.17;4.25;;;6.70;99.90;;;;;;5039255;28;20040;-75
2022/11/24 05:00:15;;;;;;;27.48;4.50;;;6.70;99.90;;;;;;5056479;28;20133;-74
2022/11/24 05:02:40;;;;;;;19.65;4.25;;;6.60;99.90;;;;;;5039685;28;20076;-74
2022/11/24 05:05:06;;;;;;;19.98;3.78;;;6.60;99.90;;;;;;5023439;28;20548;-74
2022/11/24 05:07:33;;;;;;;22.85;4.57;;;6.60;99.90;;;;;;5039989;28;20044;-73
2022/11/24 05:12:43;;;;;;;22.58;4.68;;;6.50;99.90;;;;;;5056074;28;20091;-73
2022/11/24 05:15:09;;;;;;;21.08;4.45;;;7.40;99.90;;;;;;5039758;28;20033;-74
2022/11/24 05:17:37;;;;;;;25.52;4.65;;;6.60;99.90;;;;;;5040194;28;20127;-74
2022/11/24 05:20:05;;;;;;;24.27;4.68;;;6.60;99.90;;;;;;5057285;28;20041;-74
2022/11/24 05:22:30;;;;;;;22.70;4.40;;;6.60;99.90;;;;;;5065113;28;20048;-74
2022/11/24 05:24:57;;;;;;;22.88;4.30;;;6.70;99.90;;;;;;5055648;28;20048;-74
2022/11/24 05:27:23;;;;;;;18.92;4.03;;;6.70;99.90;;;;;;5054990;28;20071;-74
2022/11/24 05:29:48;;;;;;;27.60;4.13;;;6.70;99.90;;;;;;5052967;28;20479;-73
2022/11/24 05:32:14;;;;;;;25.95;4.60;;;7.10;99.90;;;;;;5052091;28;20059;-74
2022/11/24 05:34:40;;;;;;;20.50;4.05;;;6.80;99.90;;;;;;5054904;28;20049;-74
2022/11/24 05:37:07;;;;;;;22.80;4.18;;;6.80;99.90;;;;;;5050093;28;20048;-74
2022/11/24 05:39:34;;;;;;;25.13;4.32;;;6.80;99.90;;;;;;5055706;28;20124;-73
2022/11/24 05:44:46;;;;;;;18.58;4.03;;;6.90;99.90;;;;;;5052478;28;20076;-74
2022/11/24 05:47:12;;;;;;;21.88;4.30;;;6.80;99.90;;;;;;5049525;28;20044;-74
2022/11/24 05:49:37;;;;;;;22.98;4.53;;;6.80;99.90;;;;;;5052015;28;20396;-74
2022/11/24 05:52:03;;;;;;;23.10;4.05;;;6.70;99.90;;;;;;5046341;28;20071;-74
2022/11/24 05:54:29;;;;;;;22.83;4.00;;;6.70;99.90;;;;;;5043264;28;20098;-74
2022/11/24 05:56:55;;;;;;;23.02;4.25;;;6.70;99.90;;;;;;5052640;28;20040;-74
2022/11/24 05:59:21;;;;;;;21.38;4.03;;;6.60;99.90;;;;;;5054682;28;20052;-74
2022/11/24 06:01:47;;;;;;;20.00;4.22;;;6.60;99.90;;;;;;5036088;28;20040;-74
2022/11/24 06:04:12;;;;;;;25.15;4.10;;;6.60;99.90;;;;;;5054536;28;20044;-73
2022/11/24 06:06:38;;;;;;;23.52;4.68;;;6.50;99.90;;;;;;5044770;28;20056;-74
2022/11/24 06:09:04;;;;;;;24.60;4.50;;;6.50;99.90;;;;;;5055209;28;20094;-74
2022/11/24 06:11:30;;;;;;;21.35;4.20;;;6.50;99.90;;;;;;5037358;28;20545;-73
2022/11/24 06:13:56;;;;;;;21.08;4.75;;;6.50;99.90;;;;;;5019008;28;20041;-75
2022/11/24 06:16:22;;;;;;;22.33;4.63;;;6.50;99.90;;;;;;5050243;28;20070;-75
2022/11/24 06:18:47;;;;;;;22.15;4.47;;;6.50;99.90;;;;;;5037517;28;20480;-75
2022/11/24 06:21:13;;;;;;;24.50;4.90;;;6.50;99.90;;;;;;5053696;28;20044;-74
2022/11/24 06:23:39;;;;;;;18.95;4.60;;;6.50;99.90;;;;;;5040102;28;20119;-74
2022/11/24 06:26:05;;;;;;;24.60;4.65;;;6.50;99.90;;;;;;5050436;28;20036;-74
2022/11/24 06:28:31;;;;;;;25.25;4.70;;;6.50;99.90;;;;;;5054178;28;20055;-74
2022/11/24 06:31:02;;;;;;;22.83;4.40;;;6.50;99.90;;;;;;5054571;28;20044;-73
2022/11/24 06:33:32;;;;;;;21.15;4.32;;;6.50;99.90;;;;;;5058081;28;20126;-74
2022/11/24 06:36:01;;;;;;;21.73;4.50;;;6.50;99.90;;;;;;5074543;28;20059;-74
2022/11/24 06:38:26;;;;;;;23.98;4.72;;;6.40;99.90;;;;;;5047193;28;20147;-74
2022/11/24 06:41:03;;;;;;;24.52;4.85;;;6.40;99.90;;;;;;5057422;28;20123;-74
2022/11/24 06:43:29;;;;;;;21.88;4.93;;;6.40;99.90;;;;;;5072729;28;20047;-74
2022/11/24 06:45:56;;;;;;;22.40;4.53;;;6.40;99.90;;;;;;5071784;28;20041;-74
2022/11/24 06:48:23;;;;;;;20.20;4.65;;;6.40;99.90;;;;;;5071589;28;20039;-75
2022/11/24 06:50:49;;;;;;;25.15;5.10;;;6.40;99.90;;;;;;5055444;28;20130;-75
2022/11/24 06:53:15;;;;;;;23.70;5.22;;;6.40;99.90;;;;;;5053256;28;20036;-74
2022/11/24 06:55:41;;;;;;;25.90;5.38;;;6.60;99.90;;;;;;5055888;28;20445;-74
2022/11/24 06:58:07;;;;;;;21.33;4.57;;;6.50;99.90;;;;;;5056036;28;20135;-73
2022/11/24 07:00:32;;;;;;;23.80;4.97;;;6.50;99.90;;;;;;5029707;28;20123;-74
2022/11/24 07:02:59;;;;;;;25.58;4.93;;;6.50;99.90;;;;;;5084608;28;20031;-74
2022/11/24 07:05:25;;;;;;;25.92;5.00;;;6.50;99.90;;;;;;5072228;28;20083;-76
2022/11/24 07:07:51;;;;;;;25.02;5.15;;;6.50;99.90;;;;;;5071923;28;20121;-73
2022/11/24 07:10:17;;;;;;;25.40;4.93;;;6.60;99.90;;;;;;5064797;28;20468;-74
2022/11/24 07:12:42;;;;;;;26.38;5.18;;;6.60;99.90;;;;;;5072395;28;20491;-74
2022/11/24 07:15:09;;;;;;;23.05;5.15;;;6.60;99.90;;;;;;5060931;28;20044;-74
2022/11/24 07:17:36;;;;;;;25.63;4.97;;;6.60;99.90;;;;;;5071529;28;20131;-74
2022/11/24 07:20:04;;;;;;;27.65;5.10;;;6.60;99.90;;;;;;5069282;28;20043;-74
2022/11/24 07:22:30;;;;;;;27.92;5.10;;;6.70;99.90;;;;;;5065695;28;20052;-74
2022/11/24 07:24:56;;;;;;;25.35;5.45;;;6.70;99.90;;;;;;5071882;28;20476;-74
2022/11/24 07:27:21;;;;;;;22.02;5.10;;;6.70;99.90;;;;;;5046404;28;20063;-74
2022/11/24 07:29:47;;;;;;;24.10;5.30;;;6.80;99.90;;;;;;5048241;28;20044;-74
2022/11/24 07:32:13;;;;;;;25.15;5.50;;;6.80;99.90;;;;;;5042459;28;20041;-73
2022/11/24 07:34:38;;;;;;;25.63;5.45;;;6.90;99.90;;;;;;5053689;28;20048;-74
2022/11/24 07:37:04;;;;;;;23.08;5.50;;;6.90;99.90;;;;;;5086524;28;20073;-73
2022/11/24 07:39:30;;;;;;;22.67;5.38;;;7.00;99.90;;;;;;5018232;28;20102;-74
2022/11/24 07:41:58;;;;;;;22.80;5.45;;;7.00;99.90;;;;;;5063870;28;20079;-73
2022/11/24 07:44:23;;;;;;;22.75;5.80;;;7.00;99.90;;;;;;5048138;28;20552;-74
2022/11/24 07:46:50;;;;;;;29.83;5.80;;;7.00;99.90;;;;;;5038195;28;20174;-74
2022/11/24 07:49:16;;;;;;;28.10;6.50;;;7.10;99.90;;;;;;5053586;28;20100;-73
2022/11/24 07:51:42;;;;;;;22.67;5.25;;;7.10;99.90;;;;;;5052172;28;20157;-74
2022/11/24 07:54:08;;;;;;;23.98;5.78;;;7.10;99.90;;;;;;5048849;28;20059;-74
2022/11/24 07:56:34;;;;;;;24.90;6.40;;;7.80;99.90;;;;;;5045271;28;20056;-74
2022/11/24 07:59:00;;;;;;;22.83;5.97;;;7.20;99.90;;;;;;5055347;28;20503;-74
2022/11/24 08:01:25;;;;;;;23.67;5.45;;;7.20;99.90;;;;;;5050652;28;20049;-73
2022/11/24 08:03:51;;;;;;;27.60;6.20;;;7.20;99.90;;;;;;5058323;28;20091;-73
2022/11/24 08:06:17;;;;;;;26.60;5.97;;;7.20;99.90;;;;;;5039327;28;20526;-74
2022/11/24 08:08:44;;;;;;;21.48;6.10;;;7.20;99.90;;;;;;5049168;28;20059;-73
2022/11/24 08:11:17;;;;;;;23.83;6.25;;;7.30;99.90;;;;;;5052376;28;20469;-73
2022/11/24 08:13:42;;;;;;;20.27;5.63;;;7.20;99.90;;;;;;5046189;28;20459;-74
2022/11/24 08:16:11;;;;;;;24.70;5.45;;;7.20;99.90;;;;;;5040070;28;20128;-74
2022/11/24 08:18:37;;;;;;;21.35;5.90;;;7.20;99.90;;;;;;5051444;28;20079;-74
2022/11/24 08:21:05;;;;;;;21.83;5.97;;;7.20;99.90;;;;;;5042041;28;20048;-73
2022/11/24 08:23:30;;;;;;;23.58;5.88;;;7.30;99.90;;;;;;5048938;28;20045;-73
2022/11/24 08:26:01;;;;;;;21.40;5.95;;;7.20;99.90;;;;;;5050128;28;20544;-73
2022/11/24 08:28:27;;;;;;;16.95;5.60;;;7.30;99.90;;;;;;5054295;28;20049;-73
2022/11/24 08:31:01;;;;;;;20.88;5.70;;;7.30;99.90;;;;;;5068346;28;20089;-73
2022/11/24 08:33:26;;;;;;;22.60;5.95;;;7.40;99.90;;;;;;5071814;28;20481;-75
2022/11/24 08:35:52;;;;;;;24.65;6.07;;;7.50;99.90;;;;;;5050517;28;20103;-73
2022/11/24 08:38:18;;;;;;;19.08;5.35;;;7.60;99.90;;;;;;5065938;28;20127;-73
2022/11/24 08:40:43;;;;;;;20.00;5.65;;;7.60;99.90;;;;;;5072854;28;20042;-74
2022/11/24 08:43:09;;;;;;;19.30;5.45;;;7.70;99.90;;;;;;5075731;28;20039;-74
2022/11/24 08:45:35;;;;;;;19.52;5.03;;;7.80;99.90;;;;;;5074145;28;20549;-73
2022/11/24 08:48:00;;;;;;;15.73;5.07;;;7.90;99.90;;;;;;5059766;28;20040;-73
2022/11/24 08:50:26;;;;;;;20.70;5.50;;;7.90;99.90;;;;;;5076388;28;20506;-73
2022/11/24 08:52:52;;;;;;;17.88;4.95;;;8.00;99.90;;;;;;5072737;28;20036;-73
2022/11/24 08:55:19;;;;;;;20.65;5.00;;;8.10;99.90;;;;;;5076030;28;20078;-74
2022/11/24 08:57:44;;;;;;;16.40;4.97;;;8.10;99.90;;;;;;5074401;28;20050;-73
2022/11/24 09:00:11;;;;;;;16.85;4.45;;;8.20;99.90;;;;;;5043270;28;20040;-73
2022/11/24 09:02:36;;;;;;;16.90;4.90;;;8.30;99.90;;;;;;5066283;28;20131;-74
2022/11/24 09:05:02;;;;;;;17.83;4.72;;;8.40;99.90;;;;;;5074414;28;20122;-73
2022/11/24 09:07:28;;;;;;;19.63;4.65;;;8.40;99.90;;;;;;5074593;28;20547;-74
2022/11/24 09:09:53;;;;;;;16.45;4.70;;;8.50;99.90;;;;;;5067185;28;20131;-73
2022/11/24 09:12:19;;;;;;;15.05;4.53;;;8.60;99.90;;;;;;5005836;28;20060;-75
2022/11/24 09:14:45;;;;;;;18.23;4.82;;;8.60;99.90;;;;;;5069720;28;20048;-74
2022/11/24 09:17:10;;;;;;;18.63;5.05;;;8.70;99.90;;;;;;5086024;28;20083;-74
2022/11/24 09:19:36;;;;;;;16.10;4.95;;;8.80;99.90;;;;;;5088759;28;20125;-74
2022/11/24 09:22:02;;;;;;;16.55;4.95;;;8.90;99.90;;;;;;5092636;28;20520;-74
2022/11/24 09:24:28;;;;;;;17.38;4.90;;;8.90;99.90;;;;;;5072863;28;20074;-74
2022/11/24 09:26:55;;;;;;;18.17;4.78;;;9.00;99.90;;;;;;5089407;28;20109;-73
2022/11/24 09:29:21;;;;;;;15.18;4.80;;;9.00;99.90;;;;;;5092209;28;20564;-73
2022/11/24 09:31:47;;;;;;;16.65;4.70;;;9.10;99.90;;;;;;5091479;28;20040;-73
2022/11/24 09:34:14;;;;;;;16.33;4.38;;;9.10;99.90;;;;;;5068774;28;20087;-73
2022/11/24 09:36:40;;;;;;;15.18;4.30;;;9.20;99.90;;;;;;5071182;28;20050;-73
2022/11/24 09:39:06;;;;;;;11.85;4.15;;;9.20;99.90;;;;;;5092892;28;20077;-74
2022/11/24 09:41:53;;;;;;;11.90;4.03;;;9.20;99.90;;;;;;5090758;28;20089;-74
2022/11/24 09:44:33;;;;;;;13.93;4.20;;;9.30;99.90;;;;;;5063509;28;20036;-73
2022/11/24 09:47:11;;;;;;;12.25;3.70;;;9.30;99.90;;;;;;5084805;28;20043;-73
2022/11/24 09:49:59;;;;;;;13.38;3.70;;;9.40;99.90;;;;;;5084479;28;20499;-74
2022/11/24 09:52:38;;;;;;;11.40;3.50;;;9.50;99.90;;;;;;5086003;28;20077;-73
2022/11/24 09:55:14;;;;;;;12.00;3.53;;;9.50;99.90;;;;;;5089613;28;20048;-74
2022/11/24 09:57:42;;;;;;;10.15;3.40;;;9.50;99.90;;;;;;5091548;28;20051;-74
2022/11/24 10:00:13;;;;;;;11.23;3.33;;;9.50;99.90;;;;;;5091927;28;20047;-75
2022/11/24 10:02:38;;;;;;;10.35;3.08;;;9.60;99.90;;;;;;5081317;28;20043;-74
2022/11/24 10:05:05;;;;;;;12.75;3.47;;;9.60;99.90;;;;;;5057205;28;20123;-76
2022/11/24 10:07:45;;;;;;;12.05;3.65;;;9.70;99.90;;;;;;5108368;28;20441;-75
2022/11/24 10:10:18;;;;;;;10.20;3.70;;;9.70;99.90;;;;;;5090611;28;20055;-76
2022/11/24 10:12:52;;;;;;;10.93;3.65;;;9.70;99.90;;;;;;5091436;28;20040;-74
2022/11/24 10:15:37;;;;;;;11.73;3.70;;;9.80;99.90;;;;;;5073623;28;20078;-74
2022/11/24 10:18:24;;;;;;;12.35;3.70;;;9.80;99.90;;;;;;5092349;28;20051;-74
2022/11/24 10:21:28;;;;;;;11.95;3.75;;;9.80;99.90;;;;;;5092188;28;20040;-74
2022/11/24 10:24:25;;;;;;;10.10;3.65;;;9.60;99.90;;;;;;5090739;28;20055;-75
2022/11/24 10:27:06;;;;;;;10.68;3.80;;;9.90;99.90;;;;;;5084389;28;20560;-75
2022/11/24 10:29:36;;;;;;;10.18;3.72;;;9.80;99.90;;;;;;5083832;28;20060;-74
2022/11/24 10:32:06;;;;;;;9.85;4.18;;;9.70;99.90;;;;;;5084171;28;20395;-74
2022/11/24 10:34:36;;;;;;;10.43;4.20;;;9.60;99.90;;;;;;5092400;28;20128;-74
2022/11/24 10:37:17;;;;;;;10.35;3.90;;;9.50;99.90;;;;;;5071754;28;20495;-74
2022/11/24 10:39:57;;;;;;;11.20;3.95;;;9.40;99.90;;;;;;5081621;28;20087;-74
2022/11/24 10:42:37;;;;;;;9.07;4.30;;;9.40;99.90;;;;;;5087209;28;20049;-74
2022/11/24 10:45:14;;;;;;;10.48;4.70;;;9.30;99.90;;;;;;5088293;28;20050;-74
2022/11/24 10:47:42;;;;;;;9.52;4.35;;;9.30;99.90;;;;;;5087630;28;20098;-75
2022/11/24 10:50:26;;;;;;;10.93;4.25;;;9.30;99.90;;;;;;5091766;28;20040;-74
2022/11/24 10:53:10;;;;;;;10.45;4.70;;;9.40;99.90;;;;;;5069016;28;20044;-74
2022/11/24 10:55:57;;;;;;;10.80;4.80;;;9.40;99.90;;;;;;5086144;28;20058;-75
2022/11/24 10:58:30;;;;;;;10.40;5.05;;;9.40;99.90;;;;;;5091231;28;20043;-75
2022/11/24 11:01:00;;;;;;;10.05;4.90;;;9.40;99.90;;;;;;5092272;28;20142;-74
2022/11/24 11:03:30;;;;;;;8.50;4.90;;;9.50;99.90;;;;;;5091072;28;20039;-75
2022/11/24 11:06:11;;;;;;;11.00;5.90;;;9.40;99.90;;;;;;5074228;28;20048;-75
2022/11/24 11:08:37;;;;;;;11.30;5.65;;;9.50;99.90;;;;;;5075775;28;20039;-76
2022/11/24 11:11:28;;;;;;;11.93;5.80;;;9.50;99.90;;;;;;5088332;28;20098;-75
2022/11/24 11:13:55;;;;;;;11.02;6.00;;;9.50;99.90;;;;;;5092066;28;20047;-74
2022/11/24 11:16:31;;;;;;;12.30;6.07;;;9.60;99.90;;;;;;5091320;28;20051;-75
2022/11/24 11:18:57;;;;;;;11.75;6.65;;;9.60;99.90;;;;;;5091650;28;20534;-75
2022/11/24 11:21:37;;;;;;;12.95;6.90;;;9.70;99.90;;;;;;5093247;28;20145;-75
2022/11/24 11:24:13;;;;;;;10.38;6.50;;;9.80;99.90;;;;;;5091595;28;20044;-75
2022/11/24 11:26:43;;;;;;;12.05;6.15;;;9.90;99.90;;;;;;5090660;28;20104;-75
2022/11/24 11:29:11;;;;;;;10.80;6.18;;;10.00;99.90;;;;;;5073315;28;20064;-75
2022/11/24 11:31:38;;;;;;;11.23;6.22;;;10.00;99.90;;;;;;5091004;28;20040;-75
2022/11/24 11:34:17;;;;;;;13.55;6.90;;;10.00;99.90;;;;;;5093907;28;20051;-74
2022/11/24 11:36:46;;;;;;;11.52;6.70;;;10.00;99.90;;;;;;5093543;28;20424;-74
2022/11/24 11:39:25;;;;;;;11.57;7.00;;;10.00;99.90;;;;;;5095030;28;20055;-75
2022/11/24 11:42:13;;;;;;;11.75;7.15;;;10.00;99.90;;;;;;5092987;27;20047;-75
2022/11/24 11:44:48;;;;;;;12.43;7.38;;;10.00;99.90;;;;;;5076053;28;20039;-74
2022/11/24 11:47:32;;;;;;;14.10;7.10;;;9.90;99.90;;;;;;5087711;28;20400;-74
2022/11/24 11:49:58;;;;;;;12.27;7.22;;;9.90;99.90;;;;;;5092832;28;20036;-74
2022/11/24 11:52:36;;;;;;;12.30;7.10;;;9.90;99.90;;;;;;5091595;28;20384;-75
2022/11/24 11:55:33;;;;;;;13.02;7.40;;;9.90;99.90;;;;;;5075089;28;20104;-74
2022/11/24 11:58:11;;;;;;;14.50;7.70;;;10.00;99.90;;;;;;5092789;28;20044;-74
2022/11/24 12:00:44;;;;;;;14.65;7.43;;;10.00;99.90;;;;;;5074936;28;20051;-73
2022/11/24 12:03:25;;;;;;;13.52;7.32;;;10.00;99.90;;;;;;5086419;28;20122;-74
2022/11/24 12:05:59;;;;;;;13.27;6.97;;;10.00;99.90;;;;;;5092344;28;20051;-74
2022/11/24 12:08:53;;;;;;;12.52;6.60;;;10.00;99.90;;;;;;5074001;28;20071;-75
2022/11/24 12:11:38;;;;;;;14.30;7.20;;;10.00;99.90;;;;;;5073354;28;20044;-75
2022/11/24 12:14:13;;;;;;;14.73;7.40;;;10.00;99.90;;;;;;5092585;28;20128;-74
2022/11/24 12:16:57;;;;;;;15.77;7.00;;;10.00;99.90;;;;;;5090202;28;20200;-74
2022/11/24 12:20:21;;;;;;;13.38;7.05;;;10.00;99.90;;;;;;5100540;28;20051;-75
2022/11/24 12:23:01;;;;;;;15.40;7.20;;;10.00;99.90;;;;;;5013726;28;20529;-74
2022/11/24 12:25:39;;;;;;;13.98;6.88;;;10.00;99.90;;;;;;5087037;28;20518;-74
2022/11/24 12:28:35;;;;;;;15.55;7.57;;;10.10;99.90;;;;;;5085430;28;20036;-74
2022/11/24 12:31:22;;;;;;;16.05;7.57;;;10.10;99.90;;;;;;5075399;28;20553;-74
2022/11/24 12:34:11;;;;;;;15.10;7.57;;;10.20;99.90;;;;;;5066661;28;20560;-74
2022/11/24 12:37:14;;;;;;;14.98;7.30;;;10.10;99.90;;;;;;5065341;28;20055;-74
2022/11/24 12:39:47;;;;;;;16.83;8.07;;;10.10;99.90;;;;;;5090795;28;20053;-75
2022/11/24 12:42:19;;;;;;;17.67;7.68;;;10.20;99.90;;;;;;5067408;28;20127;-74
2022/11/24 12:45:08;;;;;;;13.50;7.47;;;10.10;99.90;;;;;;5087695;28;20055;-76
2022/11/24 12:47:40;;;;;;;17.42;7.80;;;10.20;99.90;;;;;;5041498;28;20052;-74
2022/11/24 12:50:21;;;;;;;15.10;7.30;;;10.10;99.90;;;;;;5068384;28;20049;-74
2022/11/24 12:53:02;;;;;;;16.65;7.95;;;10.10;99.90;;;;;;5063161;28;20120;-74
2022/11/24 12:55:32;;;;;;;15.80;7.80;;;10.10;99.90;;;;;;5054632;28;20048;-74
2022/11/24 12:58:06;;;;;;;17.05;7.75;;;10.10;99.90;;;;;;5074250;28;20079;-74
2022/11/24 13:00:38;;;;;;;17.50;7.90;;;10.10;99.90;;;;;;5060352;28;20048;-74
2022/11/24 13:03:39;;;;;;;15.90;8.15;;;10.10;99.90;;;;;;5070230;28;20040;-74
2022/11/24 13:06:26;;;;;;;18.42;7.53;;;10.10;99.90;;;;;;5055904;28;20041;-74
2022/11/24 13:08:52;;;;;;;14.27;7.40;;;10.10;99.90;;;;;;5073816;28;20093;-75